createdAt,value
2023-03-29T00:03:39.479Z,62.10
2023-03-29T00:07:45.565Z,62.40
2023-03-29T00:11:51.392Z,62.80
2023-03-29T00:15:57.268Z,63.20
2023-03-29T00:20:07.096Z,63.20
2023-03-29T00:24:12.642Z,63.90
2023-03-29T00:28:18.172Z,63.40
2023-03-29T00:32:23.770Z,63.50
2023-03-29T00:36:29.340Z,63.60
2023-03-29T00:40:41.559Z,63.60
2023-03-29T00:45:18.909Z,64.10
2023-03-29T00:49:24.518Z,64.80
2023-03-29T00:53:33.843Z,64.20
2023-03-29T00:57:41.317Z,64.40
2023-03-29T01:02:05.407Z,64.60
2023-03-29T01:06:13.329Z,65.30
2023-03-29T01:10:31.938Z,65.10
2023-03-29T01:14:53.620Z,65.60
2023-03-29T01:19:00.426Z,66.40
2023-03-29T01:23:43.584Z,66.40
2023-03-29T01:28:04.562Z,66.70
2023-03-29T01:32:15.693Z,67.00
2023-03-29T01:37:00.530Z,67.20
2023-03-29T01:41:07.808Z,68.60
2023-03-29T01:45:19.955Z,67.60
2023-03-29T01:49:35.552Z,67.70
2023-03-29T01:53:51.139Z,68.70
2023-03-29T01:57:58.432Z,68.40
2023-03-29T02:02:11.297Z,68.10
2023-03-29T02:06:26.241Z,68.40
2023-03-29T02:10:34.141Z,68.90
2023-03-29T02:14:39.714Z,68.60
2023-03-29T02:18:48.269Z,68.60
2023-03-29T02:23:24.759Z,68.80
2023-03-29T02:27:30.376Z,69.30
2023-03-29T02:31:48.997Z,69.40
2023-03-29T02:36:14.285Z,69.60
2023-03-29T02:40:21.606Z,69.80
2023-03-29T02:44:33.226Z,69.30
2023-03-29T02:48:39.444Z,69.50
2023-03-29T02:52:59.267Z,69.30
2023-03-29T02:57:06.605Z,69.70
2023-03-29T03:01:12.836Z,69.30
2023-03-29T03:05:19.000Z,69.60
2023-03-29T03:09:24.593Z,69.40
2023-03-29T03:13:30.104Z,69.60
2023-03-29T03:17:40.024Z,69.40
2023-03-29T03:21:47.031Z,69.50
2023-03-29T03:25:52.993Z,69.50
2023-03-29T03:29:58.433Z,69.40
2023-03-29T03:34:03.911Z,69.30
2023-03-29T03:38:10.871Z,69.10
2023-03-29T03:42:16.665Z,69.20
2023-03-29T03:46:22.205Z,69.20
2023-03-29T03:50:28.138Z,69.30
2023-03-29T03:54:34.328Z,69.20
2023-03-29T03:58:40.064Z,69.30
2023-03-29T04:02:47.579Z,69.40
2023-03-29T04:06:53.079Z,69.30
2023-03-29T04:11:00.096Z,69.10
2023-03-29T04:15:07.172Z,68.90
2023-03-29T04:19:13.604Z,68.80
2023-03-29T04:23:19.326Z,68.70
2023-03-29T04:27:24.898Z,68.40
2023-03-29T04:31:30.984Z,68.10
2023-03-29T04:35:36.604Z,68.10
2023-03-29T04:39:42.487Z,68.00
2023-03-29T04:43:48.078Z,68.00
2023-03-29T04:47:56.740Z,67.90
2023-03-29T04:52:02.302Z,68.00
2023-03-29T04:56:08.518Z,68.00
2023-03-29T05:00:15.492Z,67.80
2023-03-29T05:04:21.072Z,68.00
2023-03-29T05:08:26.531Z,67.90
2023-03-29T05:12:32.718Z,67.90
2023-03-29T05:16:38.388Z,68.10
2023-03-29T05:20:43.942Z,68.70
2023-03-29T05:24:51.551Z,68.00
2023-03-29T05:28:57.309Z,68.10
2023-03-29T05:33:05.562Z,68.30
2023-03-29T05:37:11.319Z,68.20
2023-03-29T05:41:17.981Z,68.20
2023-03-29T05:45:24.679Z,68.30
2023-03-29T05:49:30.326Z,67.90
2023-03-29T05:53:36.433Z,67.80
2023-03-29T05:57:41.967Z,68.00
2023-03-29T06:01:47.584Z,67.90
2023-03-29T06:06:04.192Z,67.80
2023-03-29T06:10:10.550Z,67.90
2023-03-29T06:14:16.307Z,67.60
2023-03-29T06:18:23.516Z,67.50
2023-03-29T06:22:29.029Z,67.80
2023-03-29T06:26:35.257Z,67.70
2023-03-29T06:30:41.983Z,67.90
2023-03-29T06:34:47.531Z,67.70
2023-03-29T06:38:53.906Z,67.70
2023-03-29T06:43:00.492Z,67.70
2023-03-29T06:47:06.015Z,68.00
2023-03-29T06:51:11.509Z,67.90
2023-03-29T06:55:18.377Z,67.90
2023-03-29T06:59:23.923Z,68.40
2023-03-29T07:03:29.997Z,67.70
2023-03-29T07:07:53.551Z,67.50
2023-03-29T07:12:00.631Z,67.40
2023-03-29T07:16:07.281Z,67.70
2023-03-29T07:20:14.445Z,67.50
2023-03-29T07:24:21.463Z,67.20
2023-03-29T07:28:27.076Z,67.10
2023-03-29T07:32:33.929Z,67.20
2023-03-29T07:36:40.158Z,67.00
2023-03-29T07:40:45.886Z,67.10
2023-03-29T07:44:51.508Z,66.80
2023-03-29T07:48:57.340Z,66.90
2023-03-29T07:53:03.342Z,66.90
2023-03-29T07:57:08.954Z,66.90
2023-03-29T08:01:18.888Z,66.20
2023-03-29T08:09:33.614Z,67.40
2023-03-29T08:13:39.163Z,66.60
2023-03-29T08:17:46.278Z,66.60
2023-03-29T08:21:52.013Z,66.30
2023-03-29T08:25:57.674Z,66.00
2023-03-29T08:30:05.307Z,66.10
2023-03-29T08:34:10.981Z,66.10
2023-03-29T08:38:16.537Z,65.80
2023-03-29T08:42:59.156Z,65.20
2023-03-29T08:47:23.338Z,64.50
2023-03-29T08:51:46.476Z,65.30
2023-03-29T08:55:53.571Z,65.60
2023-03-29T09:00:04.757Z,65.30
2023-03-29T09:04:22.812Z,65.50
2023-03-29T09:08:28.573Z,65.50
2023-03-29T09:13:17.815Z,65.20
2023-03-29T09:17:35.718Z,65.00
2023-03-29T09:22:05.226Z,64.50
2023-03-29T09:26:49.158Z,64.40
2023-03-29T09:31:03.689Z,65.00
2023-03-29T09:35:27.632Z,64.40
2023-03-29T09:39:33.317Z,64.40
2023-03-29T09:43:42.956Z,63.70
2023-03-29T09:47:55.575Z,63.20
2023-03-29T09:52:09.343Z,62.80
2023-03-29T09:56:15.968Z,63.00
2023-03-29T10:00:22.373Z,63.20
2023-03-29T10:04:28.071Z,63.30
2023-03-29T10:08:41.528Z,63.20
2023-03-29T10:12:53.287Z,62.40
2023-03-29T10:16:59.700Z,62.90
2023-03-29T10:21:06.135Z,62.50
2023-03-29T10:25:18.011Z,62.30
2023-03-29T10:29:25.712Z,61.80
2023-03-29T10:33:34.877Z,62.10
2023-03-29T10:37:43.178Z,61.80
2023-03-29T10:41:52.693Z,61.30
2023-03-29T10:46:31.937Z,61.60
2023-03-29T10:50:40.603Z,60.70
2023-03-29T10:54:47.558Z,60.20
2023-03-29T10:59:23.415Z,60.40
2023-03-29T11:03:57.094Z,60.20
2023-03-29T11:08:31.859Z,58.50
2023-03-29T11:13:14.997Z,58.90
2023-03-29T11:17:43.007Z,58.70
2023-03-29T11:22:13.921Z,59.60
2023-03-29T11:27:09.502Z,58.80
2023-03-29T11:31:41.445Z,58.40
2023-03-29T11:36:14.724Z,58.70
2023-03-29T11:40:36.720Z,59.00
2023-03-29T11:44:44.773Z,58.70
2023-03-29T11:49:10.310Z,59.50
2023-03-29T11:53:43.900Z,58.70
2023-03-29T11:58:19.030Z,58.20
2023-03-29T12:02:41.724Z,57.00
2023-03-29T12:07:01.743Z,57.80
2023-03-29T12:11:35.173Z,57.60
2023-03-29T12:15:58.939Z,56.60
2023-03-29T12:20:19.810Z,57.00
2023-03-29T12:24:30.215Z,57.60
2023-03-29T12:29:09.740Z,58.60
2023-03-29T12:33:47.770Z,57.70
2023-03-29T12:38:01.967Z,57.90
2023-03-29T12:42:17.061Z,57.60
2023-03-29T12:46:27.696Z,58.00
2023-03-29T12:50:49.411Z,58.10
2023-03-29T12:55:02.021Z,58.10
2023-03-29T12:59:10.768Z,58.10
2023-03-29T13:03:35.149Z,58.60
2023-03-29T13:07:47.505Z,58.50
2023-03-29T13:12:04.137Z,58.60
2023-03-29T13:16:28.371Z,58.90
2023-03-29T13:21:10.369Z,59.00
2023-03-29T13:26:00.254Z,59.60
2023-03-29T13:30:41.538Z,59.70
2023-03-29T13:35:03.467Z,59.70
2023-03-29T13:39:22.163Z,60.10
2023-03-29T13:43:51.885Z,60.30
2023-03-29T13:48:28.995Z,60.30
2023-03-29T13:52:40.988Z,60.90
2023-03-29T13:57:13.930Z,61.00
2023-03-29T14:01:32.705Z,61.80
2023-03-29T14:05:43.356Z,61.80
2023-03-29T14:09:51.059Z,61.90
2023-03-29T14:14:00.077Z,62.40
2023-03-29T14:18:05.999Z,61.90
2023-03-29T14:22:17.616Z,61.80
2023-03-29T14:26:25.727Z,61.90
2023-03-29T14:30:32.021Z,61.80
2023-03-29T14:34:39.263Z,61.80
2023-03-29T14:38:50.832Z,61.70
2023-03-29T14:42:56.509Z,61.60
2023-03-29T14:47:03.388Z,61.80
2023-03-29T14:51:09.771Z,61.90
2023-03-29T14:55:18.310Z,62.00
2023-03-29T14:59:32.151Z,61.80
2023-03-29T15:03:57.796Z,62.20
2023-03-29T15:08:04.787Z,61.90
2023-03-29T15:12:16.265Z,61.70
2023-03-29T15:16:22.804Z,61.60
2023-03-29T15:20:39.884Z,61.70
2023-03-29T15:24:49.057Z,61.70
2023-03-29T15:29:07.533Z,61.90
2023-03-29T15:33:22.030Z,61.60
2023-03-29T15:37:28.681Z,61.60
2023-03-29T15:41:34.190Z,61.80
2023-03-29T15:45:39.743Z,61.70
2023-03-29T15:49:47.494Z,61.70
2023-03-29T15:53:53.101Z,61.50
2023-03-29T15:57:58.719Z,61.10
2023-03-29T16:02:05.087Z,62.20
2023-03-29T16:06:12.310Z,61.60
2023-03-29T16:10:17.852Z,61.80
2023-03-29T16:14:27.308Z,61.90
2023-03-29T16:18:32.927Z,61.90
2023-03-29T16:22:38.468Z,61.90
2023-03-29T16:26:44.209Z,61.90
2023-03-29T16:30:49.819Z,61.90
2023-03-29T16:34:55.655Z,62.20
2023-03-29T16:39:01.627Z,62.20
2023-03-29T16:43:10.602Z,62.20
2023-03-29T16:47:16.325Z,62.20
2023-03-29T16:51:21.917Z,62.40
2023-03-29T16:55:28.387Z,63.00
2023-03-29T16:59:33.923Z,62.50
2023-03-29T17:03:40.500Z,62.80
2023-03-29T17:07:46.853Z,62.80
2023-03-29T17:11:52.552Z,62.80
2023-03-29T17:15:58.249Z,63.00
2023-03-29T17:20:11.823Z,63.20
2023-03-29T17:24:17.495Z,63.30
2023-03-29T17:28:24.104Z,63.40
2023-03-29T17:32:29.677Z,63.60
2023-03-29T17:36:37.426Z,63.80
2023-03-29T17:40:43.150Z,63.70
2023-03-29T17:44:48.657Z,63.70
2023-03-29T17:48:54.380Z,63.70
2023-03-29T17:52:59.856Z,64.00
2023-03-29T17:57:05.528Z,64.20
2023-03-29T18:01:13.418Z,64.60
2023-03-29T18:05:19.038Z,65.00
2023-03-29T18:09:27.067Z,65.20
2023-03-29T18:13:34.597Z,65.50
2023-03-29T18:17:40.171Z,65.60
2023-03-29T18:21:45.678Z,65.90
2023-03-29T18:25:51.501Z,66.10
2023-03-29T18:29:58.692Z,66.20
2023-03-29T18:34:04.288Z,66.40
2023-03-29T18:38:10.084Z,66.50
2023-03-29T18:42:15.694Z,66.60
2023-03-29T18:46:21.278Z,66.70
2023-03-29T18:50:27.111Z,66.80
2023-03-29T18:54:32.686Z,67.00
2023-03-29T18:58:38.188Z,67.00
2023-03-29T19:02:43.789Z,67.20
2023-03-29T19:06:49.399Z,67.30
2023-03-29T19:11:02.808Z,67.30
2023-03-29T19:15:09.662Z,67.70
2023-03-29T19:19:15.127Z,67.80
2023-03-29T19:23:22.630Z,67.80
2023-03-29T19:27:28.169Z,67.80
2023-03-29T19:31:35.892Z,67.80
2023-03-29T19:35:41.901Z,68.00
2023-03-29T19:39:47.438Z,68.00
2023-03-29T19:43:53.052Z,68.10
2023-03-29T19:48:02.935Z,68.10
2023-03-29T19:52:09.108Z,68.10
2023-03-29T19:56:15.861Z,68.30
2023-03-29T20:00:25.049Z,68.40
2023-03-29T20:04:33.321Z,68.40
2023-03-29T20:08:39.044Z,68.60
2023-03-29T20:12:44.657Z,68.60
2023-03-29T20:16:50.795Z,68.70
2023-03-29T20:20:56.407Z,68.60
2023-03-29T20:25:02.077Z,69.40
2023-03-29T20:29:07.998Z,68.90
2023-03-29T20:33:13.455Z,69.00
2023-03-29T20:37:22.920Z,69.10
2023-03-29T20:41:28.595Z,69.20
2023-03-29T20:45:46.193Z,69.30
2023-03-29T20:49:57.940Z,69.40
2023-03-29T20:54:05.831Z,69.40
2023-03-29T20:58:11.563Z,69.50
2023-03-29T21:02:21.199Z,69.50
2023-03-29T21:06:27.017Z,69.70
2023-03-29T21:10:32.780Z,69.90
2023-03-29T21:14:38.756Z,69.90
2023-03-29T21:18:44.238Z,69.80
2023-03-29T21:22:49.927Z,69.90
2023-03-29T21:26:55.400Z,70.10
2023-03-29T21:31:07.263Z,70.10
2023-03-29T21:35:13.158Z,70.20
2023-03-29T21:39:18.629Z,70.20
2023-03-29T21:43:24.293Z,70.30
2023-03-29T21:47:29.810Z,70.30
2023-03-29T21:51:35.448Z,70.40
2023-03-29T21:55:41.035Z,70.60
2023-03-29T21:59:46.509Z,70.70
2023-03-29T22:03:52.014Z,70.90
2023-03-29T22:07:58.660Z,71.00
2023-03-29T22:12:04.836Z,71.00
2023-03-29T22:16:17.034Z,71.20
2023-03-29T22:20:22.971Z,71.80
2023-03-29T22:24:29.127Z,71.00
2023-03-29T22:28:36.803Z,70.90
2023-03-29T22:32:42.569Z,70.90
2023-03-29T22:36:48.126Z,71.00
2023-03-29T22:40:54.119Z,71.30
2023-03-29T22:44:59.625Z,71.60
2023-03-29T22:49:06.028Z,71.80
2023-03-29T22:53:11.658Z,71.90
2023-03-29T22:57:17.197Z,71.80
2023-03-29T23:01:22.818Z,72.10
2023-03-29T23:05:28.296Z,72.10
2023-03-29T23:09:33.939Z,71.90
2023-03-29T23:13:39.553Z,72.00
2023-03-29T23:17:45.453Z,72.00
2023-03-29T23:21:52.721Z,72.40
2023-03-29T23:25:58.427Z,72.70
2023-03-29T23:30:04.495Z,73.00
2023-03-29T23:34:10.608Z,73.00
2023-03-29T23:38:16.174Z,73.40
2023-03-29T23:42:21.703Z,73.40
2023-03-29T23:46:27.317Z,73.70
2023-03-29T23:50:32.839Z,73.80
2023-03-29T23:54:38.635Z,74.20
2023-03-29T23:58:44.547Z,74.40
